sensor_id;sensor_type;location;lat;lon;timestamp;P1;durP1;ratioP1;P2;durP2;ratioP2
39020;SDS011;25188;51.958;5.842;2022-08-19T00:01:49;8.40;;;4.40;;
39020;SDS011;25188;51.958;5.842;2022-08-19T00:04:17;6.70;;;4.20;;
39020;SDS011;25188;51.958;5.842;2022-08-19T00:06:44;8.07;;;3.95;;
39020;SDS011;25188;51.958;5.842;2022-08-19T00:09:12;6.72;;;3.60;;
39020;SDS011;25188;51.958;5.842;2022-08-19T00:11:41;5.35;;;3.90;;
39020;SDS011;25188;51.958;5.842;2022-08-19T00:14:09;7.40;;;4.25;;
39020;SDS011;25188;51.958;5.842;2022-08-19T00:16:37;8.52;;;4.40;;
39020;SDS011;25188;51.958;5.842;2022-08-19T00:19:03;6.32;;;3.78;;
39020;SDS011;25188;51.958;5.842;2022-08-19T00:21:29;5.97;;;4.22;;
39020;SDS011;25188;51.958;5.842;2022-08-19T00:23:55;6.53;;;5.05;;
39020;SDS011;25188;51.958;5.842;2022-08-19T00:26:25;5.90;;;4.47;;
39020;SDS011;25188;51.958;5.842;2022-08-19T00:28:51;5.13;;;3.58;;
39020;SDS011;25188;51.958;5.842;2022-08-19T00:31:17;5.97;;;3.92;;
39020;SDS011;25188;51.958;5.842;2022-08-19T00:33:43;5.30;;;3.88;;
39020;SDS011;25188;51.958;5.842;2022-08-19T00:36:09;6.13;;;4.32;;
39020;SDS011;25188;51.958;5.842;2022-08-19T00:38:35;5.25;;;4.10;;
39020;SDS011;25188;51.958;5.842;2022-08-19T00:41:02;6.32;;;4.53;;
39020;SDS011;25188;51.958;5.842;2022-08-19T00:43:30;6.45;;;4.00;;
39020;SDS011;25188;51.958;5.842;2022-08-19T00:45:55;8.05;;;4.88;;
39020;SDS011;25188;51.958;5.842;2022-08-19T00:48:21;6.82;;;4.28;;
39020;SDS011;25188;51.958;5.842;2022-08-19T00:50:48;7.18;;;4.55;;
39020;SDS011;25188;51.958;5.842;2022-08-19T00:53:16;5.57;;;4.43;;
39020;SDS011;25188;51.958;5.842;2022-08-19T00:55:45;5.68;;;4.00;;
39020;SDS011;25188;51.958;5.842;2022-08-19T00:58:15;7.68;;;5.07;;
39020;SDS011;25188;51.958;5.842;2022-08-19T01:00:44;8.95;;;4.70;;
39020;SDS011;25188;51.958;5.842;2022-08-19T01:03:15;6.25;;;4.45;;
39020;SDS011;25188;51.958;5.842;2022-08-19T01:05:43;8.00;;;5.55;;
39020;SDS011;25188;51.958;5.842;2022-08-19T01:08:10;7.60;;;5.82;;
39020;SDS011;25188;51.958;5.842;2022-08-19T01:10:38;9.13;;;5.38;;
39020;SDS011;25188;51.958;5.842;2022-08-19T01:13:19;6.70;;;5.60;;
39020;SDS011;25188;51.958;5.842;2022-08-19T01:16:09;6.57;;;5.03;;
39020;SDS011;25188;51.958;5.842;2022-08-19T01:18:39;7.03;;;5.00;;
39020;SDS011;25188;51.958;5.842;2022-08-19T01:21:09;7.60;;;5.90;;
39020;SDS011;25188;51.958;5.842;2022-08-19T01:23:39;7.32;;;5.68;;
39020;SDS011;25188;51.958;5.842;2022-08-19T01:26:09;6.70;;;5.25;;
39020;SDS011;25188;51.958;5.842;2022-08-19T01:28:41;6.80;;;5.18;;
39020;SDS011;25188;51.958;5.842;2022-08-19T01:31:09;9.25;;;5.15;;
39020;SDS011;25188;51.958;5.842;2022-08-19T01:33:37;8.20;;;6.03;;
39020;SDS011;25188;51.958;5.842;2022-08-19T01:36:04;7.95;;;5.28;;
39020;SDS011;25188;51.958;5.842;2022-08-19T01:38:34;8.18;;;5.45;;
39020;SDS011;25188;51.958;5.842;2022-08-19T01:41:01;9.52;;;5.97;;
39020;SDS011;25188;51.958;5.842;2022-08-19T01:43:27;9.25;;;6.07;;
39020;SDS011;25188;51.958;5.842;2022-08-19T01:45:52;9.60;;;6.20;;
39020;SDS011;25188;51.958;5.842;2022-08-19T01:48:19;7.43;;;5.70;;
39020;SDS011;25188;51.958;5.842;2022-08-19T01:50:44;8.13;;;6.07;;
39020;SDS011;25188;51.958;5.842;2022-08-19T01:53:10;7.70;;;5.93;;
39020;SDS011;25188;51.958;5.842;2022-08-19T01:55:37;8.70;;;6.18;;
39020;SDS011;25188;51.958;5.842;2022-08-19T01:58:04;9.13;;;6.28;;
39020;SDS011;25188;51.958;5.842;2022-08-19T02:00:32;9.27;;;6.65;;
39020;SDS011;25188;51.958;5.842;2022-08-19T02:02:59;7.95;;;6.22;;
39020;SDS011;25188;51.958;5.842;2022-08-19T02:05:26;9.02;;;6.57;;
39020;SDS011;25188;51.958;5.842;2022-08-19T02:07:54;8.20;;;6.15;;
39020;SDS011;25188;51.958;5.842;2022-08-19T02:10:24;9.98;;;5.97;;
39020;SDS011;25188;51.958;5.842;2022-08-19T02:12:50;8.95;;;7.05;;
39020;SDS011;25188;51.958;5.842;2022-08-19T02:15:16;8.13;;;6.28;;
39020;SDS011;25188;51.958;5.842;2022-08-19T02:17:44;10.02;;;7.50;;
39020;SDS011;25188;51.958;5.842;2022-08-19T02:20:10;17.50;;;6.72;;
39020;SDS011;25188;51.958;5.842;2022-08-19T02:22:37;9.45;;;7.13;;
39020;SDS011;25188;51.958;5.842;2022-08-19T02:25:03;8.73;;;6.97;;
39020;SDS011;25188;51.958;5.842;2022-08-19T02:27:29;9.88;;;7.72;;
39020;SDS011;25188;51.958;5.842;2022-08-19T02:29:56;8.68;;;7.20;;
39020;SDS011;25188;51.958;5.842;2022-08-19T02:32:21;9.48;;;7.68;;
39020;SDS011;25188;51.958;5.842;2022-08-19T02:34:47;12.27;;;6.82;;
39020;SDS011;25188;51.958;5.842;2022-08-19T02:37:13;9.73;;;7.70;;
39020;SDS011;25188;51.958;5.842;2022-08-19T02:39:57;10.05;;;7.35;;
39020;SDS011;25188;51.958;5.842;2022-08-19T02:42:23;9.73;;;6.93;;
39020;SDS011;25188;51.958;5.842;2022-08-19T02:44:49;9.02;;;6.97;;
39020;SDS011;25188;51.958;5.842;2022-08-19T02:47:15;9.73;;;6.88;;
39020;SDS011;25188;51.958;5.842;2022-08-19T02:49:41;9.88;;;7.40;;
39020;SDS011;25188;51.958;5.842;2022-08-19T02:52:07;9.82;;;6.93;;
39020;SDS011;25188;51.958;5.842;2022-08-19T02:54:32;8.15;;;6.93;;
39020;SDS011;25188;51.958;5.842;2022-08-19T02:56:58;11.00;;;7.57;;
39020;SDS011;25188;51.958;5.842;2022-08-19T02:59:23;10.43;;;6.38;;
39020;SDS011;25188;51.958;5.842;2022-08-19T03:01:51;7.80;;;5.60;;
39020;SDS011;25188;51.958;5.842;2022-08-19T03:04:17;8.52;;;5.93;;
39020;SDS011;25188;51.958;5.842;2022-08-19T03:06:45;9.52;;;7.05;;
39020;SDS011;25188;51.958;5.842;2022-08-19T03:09:12;10.25;;;7.97;;
39020;SDS011;25188;51.958;5.842;2022-08-19T03:11:38;11.02;;;7.90;;
39020;SDS011;25188;51.958;5.842;2022-08-19T03:14:04;13.52;;;10.05;;
39020;SDS011;25188;51.958;5.842;2022-08-19T03:16:32;10.90;;;9.10;;
39020;SDS011;25188;51.958;5.842;2022-08-19T03:19:01;12.48;;;9.88;;
39020;SDS011;25188;51.958;5.842;2022-08-19T03:21:28;10.55;;;8.75;;
39020;SDS011;25188;51.958;5.842;2022-08-19T03:23:57;14.45;;;8.82;;
39020;SDS011;25188;51.958;5.842;2022-08-19T03:26:25;10.85;;;8.82;;
39020;SDS011;25188;51.958;5.842;2022-08-19T03:28:50;12.02;;;9.13;;
39020;SDS011;25188;51.958;5.842;2022-08-19T03:31:20;10.75;;;8.40;;
39020;SDS011;25188;51.958;5.842;2022-08-19T03:33:50;11.43;;;8.88;;
39020;SDS011;25188;51.958;5.842;2022-08-19T03:36:17;12.43;;;9.40;;
39020;SDS011;25188;51.958;5.842;2022-08-19T03:38:47;11.57;;;8.40;;
39020;SDS011;25188;51.958;5.842;2022-08-19T03:41:25;11.32;;;9.75;;
39020;SDS011;25188;51.958;5.842;2022-08-19T03:43:56;10.50;;;8.93;;
39020;SDS011;25188;51.958;5.842;2022-08-19T03:46:26;10.40;;;9.02;;
39020;SDS011;25188;51.958;5.842;2022-08-19T03:48:55;13.95;;;9.65;;
39020;SDS011;25188;51.958;5.842;2022-08-19T03:51:23;11.85;;;9.90;;
39020;SDS011;25188;51.958;5.842;2022-08-19T03:53:52;12.05;;;9.75;;
39020;SDS011;25188;51.958;5.842;2022-08-19T03:56:19;11.00;;;9.23;;
39020;SDS011;25188;51.958;5.842;2022-08-19T03:58:45;10.45;;;8.10;;
39020;SDS011;25188;51.958;5.842;2022-08-19T04:01:12;10.73;;;8.60;;
39020;SDS011;25188;51.958;5.842;2022-08-19T04:03:40;12.27;;;9.43;;
39020;SDS011;25188;51.958;5.842;2022-08-19T04:06:17;10.80;;;9.00;;
39020;SDS011;25188;51.958;5.842;2022-08-19T04:08:47;11.88;;;10.15;;
39020;SDS011;25188;51.958;5.842;2022-08-19T04:11:16;14.30;;;10.52;;
39020;SDS011;25188;51.958;5.842;2022-08-19T04:13:43;14.32;;;11.05;;
39020;SDS011;25188;51.958;5.842;2022-08-19T04:16:09;12.63;;;11.07;;
39020;SDS011;25188;51.958;5.842;2022-08-19T04:18:36;12.48;;;10.45;;
39020;SDS011;25188;51.958;5.842;2022-08-19T04:21:03;12.73;;;10.32;;
39020;SDS011;25188;51.958;5.842;2022-08-19T04:23:29;13.20;;;10.93;;
39020;SDS011;25188;51.958;5.842;2022-08-19T04:25:55;14.43;;;11.35;;
39020;SDS011;25188;51.958;5.842;2022-08-19T04:28:21;14.25;;;12.25;;
39020;SDS011;25188;51.958;5.842;2022-08-19T04:30:50;16.88;;;13.55;;
39020;SDS011;25188;51.958;5.842;2022-08-19T04:33:19;14.55;;;12.40;;
39020;SDS011;25188;51.958;5.842;2022-08-19T04:35:48;14.20;;;11.80;;
39020;SDS011;25188;51.958;5.842;2022-08-19T04:38:16;14.57;;;12.30;;
39020;SDS011;25188;51.958;5.842;2022-08-19T04:40:47;14.63;;;10.90;;
39020;SDS011;25188;51.958;5.842;2022-08-19T04:43:33;14.13;;;11.88;;
39020;SDS011;25188;51.958;5.842;2022-08-19T04:46:07;12.95;;;11.15;;
39020;SDS011;25188;51.958;5.842;2022-08-19T04:48:35;14.73;;;13.05;;
39020;SDS011;25188;51.958;5.842;2022-08-19T04:51:05;18.58;;;12.85;;
39020;SDS011;25188;51.958;5.842;2022-08-19T04:53:34;18.55;;;12.50;;
39020;SDS011;25188;51.958;5.842;2022-08-19T04:56:04;15.27;;;12.15;;
39020;SDS011;25188;51.958;5.842;2022-08-19T04:58:34;16.33;;;13.20;;
39020;SDS011;25188;51.958;5.842;2022-08-19T05:01:01;17.33;;;12.57;;
39020;SDS011;25188;51.958;5.842;2022-08-19T05:03:27;15.07;;;12.80;;
39020;SDS011;25188;51.958;5.842;2022-08-19T05:05:58;16.52;;;13.25;;
39020;SDS011;25188;51.958;5.842;2022-08-19T05:08:35;14.30;;;12.43;;
39020;SDS011;25188;51.958;5.842;2022-08-19T05:11:06;14.40;;;10.73;;
39020;SDS011;25188;51.958;5.842;2022-08-19T05:13:37;18.92;;;12.15;;
39020;SDS011;25188;51.958;5.842;2022-08-19T05:16:03;17.63;;;13.57;;
39020;SDS011;25188;51.958;5.842;2022-08-19T05:18:29;15.35;;;11.85;;
39020;SDS011;25188;51.958;5.842;2022-08-19T05:21:15;15.65;;;11.63;;
39020;SDS011;25188;51.958;5.842;2022-08-19T05:24:00;13.52;;;11.15;;
39020;SDS011;25188;51.958;5.842;2022-08-19T05:26:27;14.27;;;10.98;;
39020;SDS011;25188;51.958;5.842;2022-08-19T05:28:53;15.05;;;10.73;;
39020;SDS011;25188;51.958;5.842;2022-08-19T05:31:19;15.02;;;10.27;;
39020;SDS011;25188;51.958;5.842;2022-08-19T05:33:45;13.00;;;10.50;;
39020;SDS011;25188;51.958;5.842;2022-08-19T05:36:11;13.98;;;10.70;;
39020;SDS011;25188;51.958;5.842;2022-08-19T05:38:38;15.00;;;10.77;;
39020;SDS011;25188;51.958;5.842;2022-08-19T05:41:10;12.23;;;9.88;;
39020;SDS011;25188;51.958;5.842;2022-08-19T05:43:37;14.63;;;9.38;;
39020;SDS011;25188;51.958;5.842;2022-08-19T05:46:03;15.18;;;11.32;;
39020;SDS011;25188;51.958;5.842;2022-08-19T05:48:31;16.90;;;13.00;;
39020;SDS011;25188;51.958;5.842;2022-08-19T05:50:57;16.33;;;12.55;;
39020;SDS011;25188;51.958;5.842;2022-08-19T05:53:24;16.10;;;13.55;;
39020;SDS011;25188;51.958;5.842;2022-08-19T05:55:50;17.38;;;13.02;;
39020;SDS011;25188;51.958;5.842;2022-08-19T05:58:16;17.25;;;13.95;;
39020;SDS011;25188;51.958;5.842;2022-08-19T06:00:42;16.40;;;13.23;;
39020;SDS011;25188;51.958;5.842;2022-08-19T06:03:08;16.05;;;13.80;;
39020;SDS011;25188;51.958;5.842;2022-08-19T06:05:35;18.70;;;14.48;;
39020;SDS011;25188;51.958;5.842;2022-08-19T06:08:00;18.73;;;14.48;;
39020;SDS011;25188;51.958;5.842;2022-08-19T06:10:26;18.08;;;13.82;;
39020;SDS011;25188;51.958;5.842;2022-08-19T06:12:53;16.65;;;13.52;;
39020;SDS011;25188;51.958;5.842;2022-08-19T06:15:19;18.60;;;15.13;;
39020;SDS011;25188;51.958;5.842;2022-08-19T06:17:44;18.20;;;13.63;;
39020;SDS011;25188;51.958;5.842;2022-08-19T06:20:12;17.35;;;13.85;;
39020;SDS011;25188;51.958;5.842;2022-08-19T06:22:40;17.35;;;13.02;;
39020;SDS011;25188;51.958;5.842;2022-08-19T06:25:07;15.07;;;13.00;;
39020;SDS011;25188;51.958;5.842;2022-08-19T06:27:34;21.05;;;14.43;;
39020;SDS011;25188;51.958;5.842;2022-08-19T06:30:01;19.65;;;14.95;;
39020;SDS011;25188;51.958;5.842;2022-08-19T06:32:28;21.10;;;15.93;;
39020;SDS011;25188;51.958;5.842;2022-08-19T06:34:54;22.50;;;17.00;;
39020;SDS011;25188;51.958;5.842;2022-08-19T06:37:20;29.10;;;18.85;;
39020;SDS011;25188;51.958;5.842;2022-08-19T06:39:46;24.58;;;18.85;;
39020;SDS011;25188;51.958;5.842;2022-08-19T06:42:12;27.52;;;20.77;;
39020;SDS011;25188;51.958;5.842;2022-08-19T06:44:41;32.60;;;22.90;;
39020;SDS011;25188;51.958;5.842;2022-08-19T06:47:10;35.40;;;24.05;;
39020;SDS011;25188;51.958;5.842;2022-08-19T06:49:38;40.35;;;27.10;;
39020;SDS011;25188;51.958;5.842;2022-08-19T06:52:04;42.13;;;29.08;;
39020;SDS011;25188;51.958;5.842;2022-08-19T06:54:30;47.15;;;31.30;;
39020;SDS011;25188;51.958;5.842;2022-08-19T06:56:56;47.45;;;31.77;;
39020;SDS011;25188;51.958;5.842;2022-08-19T06:59:27;48.65;;;30.75;;
39020;SDS011;25188;51.958;5.842;2022-08-19T07:01:57;64.30;;;37.28;;
39020;SDS011;25188;51.958;5.842;2022-08-19T07:04:25;55.78;;;35.22;;
39020;SDS011;25188;51.958;5.842;2022-08-19T07:06:57;59.50;;;36.38;;
39020;SDS011;25188;51.958;5.842;2022-08-19T07:09:27;63.90;;;37.28;;
39020;SDS011;25188;51.958;5.842;2022-08-19T07:11:53;59.28;;;37.83;;
39020;SDS011;25188;51.958;5.842;2022-08-19T07:14:21;75.18;;;42.35;;
39020;SDS011;25188;51.958;5.842;2022-08-19T07:16:50;85.03;;;49.53;;
39020;SDS011;25188;51.958;5.842;2022-08-19T07:19:17;79.53;;;48.40;;
39020;SDS011;25188;51.958;5.842;2022-08-19T07:21:44;78.85;;;45.70;;
39020;SDS011;25188;51.958;5.842;2022-08-19T07:24:11;80.63;;;45.83;;
39020;SDS011;25188;51.958;5.842;2022-08-19T07:26:38;71.05;;;42.67;;
39020;SDS011;25188;51.958;5.842;2022-08-19T07:29:06;75.93;;;45.17;;
39020;SDS011;25188;51.958;5.842;2022-08-19T07:31:32;69.80;;;43.78;;
39020;SDS011;25188;51.958;5.842;2022-08-19T07:34:02;73.45;;;44.80;;
39020;SDS011;25188;51.958;5.842;2022-08-19T07:36:31;69.30;;;44.97;;
39020;SDS011;25188;51.958;5.842;2022-08-19T07:38:59;65.93;;;44.78;;
39020;SDS011;25188;51.958;5.842;2022-08-19T07:41:28;69.38;;;45.22;;
39020;SDS011;25188;51.958;5.842;2022-08-19T07:43:56;68.93;;;46.17;;
39020;SDS011;25188;51.958;5.842;2022-08-19T07:46:23;68.78;;;46.88;;
39020;SDS011;25188;51.958;5.842;2022-08-19T07:48:49;63.97;;;44.53;;
39020;SDS011;25188;51.958;5.842;2022-08-19T07:51:17;66.70;;;47.33;;
39020;SDS011;25188;51.958;5.842;2022-08-19T07:53:44;59.45;;;44.70;;
39020;SDS011;25188;51.958;5.842;2022-08-19T07:56:12;63.58;;;47.05;;
39020;SDS011;25188;51.958;5.842;2022-08-19T07:58:40;59.15;;;43.88;;
39020;SDS011;25188;51.958;5.842;2022-08-19T08:01:09;61.95;;;45.85;;
39020;SDS011;25188;51.958;5.842;2022-08-19T08:03:37;63.13;;;48.40;;
39020;SDS011;25188;51.958;5.842;2022-08-19T08:06:22;66.07;;;49.28;;
39020;SDS011;25188;51.958;5.842;2022-08-19T08:09:07;59.25;;;45.72;;
39020;SDS011;25188;51.958;5.842;2022-08-19T08:11:39;56.50;;;43.80;;
39020;SDS011;25188;51.958;5.842;2022-08-19T08:14:14;58.95;;;44.08;;
39020;SDS011;25188;51.958;5.842;2022-08-19T08:16:45;63.00;;;47.47;;
39020;SDS011;25188;51.958;5.842;2022-08-19T08:19:11;63.33;;;46.90;;
39020;SDS011;25188;51.958;5.842;2022-08-19T08:21:39;55.25;;;42.03;;
39020;SDS011;25188;51.958;5.842;2022-08-19T08:24:06;57.38;;;42.00;;
39020;SDS011;25188;51.958;5.842;2022-08-19T08:26:32;57.78;;;43.17;;
39020;SDS011;25188;51.958;5.842;2022-08-19T08:28:57;55.80;;;42.72;;
39020;SDS011;25188;51.958;5.842;2022-08-19T08:31:23;49.38;;;37.95;;
39020;SDS011;25188;51.958;5.842;2022-08-19T08:33:49;54.40;;;40.47;;
39020;SDS011;25188;51.958;5.842;2022-08-19T08:36:15;50.00;;;37.53;;
39020;SDS011;25188;51.958;5.842;2022-08-19T08:38:41;53.03;;;38.33;;
39020;SDS011;25188;51.958;5.842;2022-08-19T08:41:16;54.08;;;39.08;;
39020;SDS011;25188;51.958;5.842;2022-08-19T08:44:02;46.40;;;34.75;;
39020;SDS011;25188;51.958;5.842;2022-08-19T08:46:39;50.08;;;36.28;;
39020;SDS011;25188;51.958;5.842;2022-08-19T08:54:48;45.88;;;35.17;;
39020;SDS011;25188;51.958;5.842;2022-08-19T08:57:35;45.53;;;34.42;;
39020;SDS011;25188;51.958;5.842;2022-08-19T09:02:45;45.40;;;33.10;;
39020;SDS011;25188;51.958;5.842;2022-08-19T09:05:11;41.95;;;30.95;;
39020;SDS011;25188;51.958;5.842;2022-08-19T09:12:47;37.15;;;27.63;;
39020;SDS011;25188;51.958;5.842;2022-08-19T09:15:29;43.33;;;32.75;;
39020;SDS011;25188;51.958;5.842;2022-08-19T09:18:02;36.80;;;28.50;;
39020;SDS011;25188;51.958;5.842;2022-08-19T09:20:28;38.15;;;27.55;;
39020;SDS011;25188;51.958;5.842;2022-08-19T09:22:56;37.92;;;28.40;;
39020;SDS011;25188;51.958;5.842;2022-08-19T09:25:22;37.53;;;25.75;;
39020;SDS011;25188;51.958;5.842;2022-08-19T09:27:49;34.78;;;24.80;;
39020;SDS011;25188;51.958;5.842;2022-08-19T09:30:22;40.03;;;28.10;;
39020;SDS011;25188;51.958;5.842;2022-08-19T09:32:50;35.45;;;25.92;;
39020;SDS011;25188;51.958;5.842;2022-08-19T09:35:20;36.22;;;26.02;;
39020;SDS011;25188;51.958;5.842;2022-08-19T09:37:48;34.45;;;25.58;;
39020;SDS011;25188;51.958;5.842;2022-08-19T09:40:14;32.60;;;23.95;;
39020;SDS011;25188;51.958;5.842;2022-08-19T09:42:41;33.17;;;23.27;;
39020;SDS011;25188;51.958;5.842;2022-08-19T09:45:08;30.95;;;23.67;;
39020;SDS011;25188;51.958;5.842;2022-08-19T09:47:35;32.05;;;23.98;;
39020;SDS011;25188;51.958;5.842;2022-08-19T09:50:04;29.38;;;21.05;;
39020;SDS011;25188;51.958;5.842;2022-08-19T09:52:33;29.27;;;20.52;;
39020;SDS011;25188;51.958;5.842;2022-08-19T09:55:02;34.88;;;21.73;;
39020;SDS011;25188;51.958;5.842;2022-08-19T09:57:29;29.48;;;21.10;;
39020;SDS011;25188;51.958;5.842;2022-08-19T09:59:55;28.83;;;20.35;;
39020;SDS011;25188;51.958;5.842;2022-08-19T10:02:20;27.02;;;18.88;;
39020;SDS011;25188;51.958;5.842;2022-08-19T10:04:46;30.98;;;21.88;;
39020;SDS011;25188;51.958;5.842;2022-08-19T10:09:56;30.77;;;22.35;;
39020;SDS011;25188;51.958;5.842;2022-08-19T10:12:22;31.58;;;21.73;;
39020;SDS011;25188;51.958;5.842;2022-08-19T10:14:48;27.05;;;19.90;;
39020;SDS011;25188;51.958;5.842;2022-08-19T10:17:16;28.42;;;20.70;;
39020;SDS011;25188;51.958;5.842;2022-08-19T10:19:42;25.27;;;19.00;;
39020;SDS011;25188;51.958;5.842;2022-08-19T10:22:08;29.38;;;18.60;;
39020;SDS011;25188;51.958;5.842;2022-08-19T10:24:38;28.70;;;17.17;;
39020;SDS011;25188;51.958;5.842;2022-08-19T10:27:04;23.88;;;18.13;;
39020;SDS011;25188;51.958;5.842;2022-08-19T10:29:33;24.30;;;16.55;;
39020;SDS011;25188;51.958;5.842;2022-08-19T10:32:03;26.33;;;19.25;;
39020;SDS011;25188;51.958;5.842;2022-08-19T10:34:32;23.48;;;15.98;;
39020;SDS011;25188;51.958;5.842;2022-08-19T10:36:58;20.23;;;16.05;;
39020;SDS011;25188;51.958;5.842;2022-08-19T10:39:25;23.17;;;16.70;;
39020;SDS011;25188;51.958;5.842;2022-08-19T10:41:54;25.58;;;16.02;;
39020;SDS011;25188;51.958;5.842;2022-08-19T10:44:21;23.98;;;16.17;;
39020;SDS011;25188;51.958;5.842;2022-08-19T10:46:48;17.83;;;13.20;;
39020;SDS011;25188;51.958;5.842;2022-08-19T10:49:13;20.73;;;13.02;;
39020;SDS011;25188;51.958;5.842;2022-08-19T10:51:39;21.10;;;13.80;;
39020;SDS011;25188;51.958;5.842;2022-08-19T10:54:24;17.42;;;12.70;;
39020;SDS011;25188;51.958;5.842;2022-08-19T10:57:10;17.05;;;12.15;;
39020;SDS011;25188;51.958;5.842;2022-08-19T10:59:36;18.73;;;13.13;;
39020;SDS011;25188;51.958;5.842;2022-08-19T11:02:03;16.75;;;13.10;;
39020;SDS011;25188;51.958;5.842;2022-08-19T11:04:30;15.00;;;11.27;;
39020;SDS011;25188;51.958;5.842;2022-08-19T11:06:57;14.10;;;10.43;;
39020;SDS011;25188;51.958;5.842;2022-08-19T11:09:23;16.60;;;11.45;;
39020;SDS011;25188;51.958;5.842;2022-08-19T11:11:52;14.32;;;10.90;;
39020;SDS011;25188;51.958;5.842;2022-08-19T11:14:19;15.57;;;11.80;;
39020;SDS011;25188;51.958;5.842;2022-08-19T11:16:46;17.15;;;14.27;;
39020;SDS011;25188;51.958;5.842;2022-08-19T11:19:13;15.13;;;11.55;;
39020;SDS011;25188;51.958;5.842;2022-08-19T11:21:42;16.10;;;10.65;;
39020;SDS011;25188;51.958;5.842;2022-08-19T11:24:13;17.30;;;11.68;;
39020;SDS011;25188;51.958;5.842;2022-08-19T11:26:41;14.90;;;10.15;;
39020;SDS011;25188;51.958;5.842;2022-08-19T11:29:08;13.20;;;10.32;;
39020;SDS011;25188;51.958;5.842;2022-08-19T11:31:36;12.63;;;8.50;;
39020;SDS011;25188;51.958;5.842;2022-08-19T11:34:05;14.45;;;9.95;;
39020;SDS011;25188;51.958;5.842;2022-08-19T11:39:04;15.20;;;9.98;;
39020;SDS011;25188;51.958;5.842;2022-08-19T11:41:31;12.43;;;9.40;;
39020;SDS011;25188;51.958;5.842;2022-08-19T11:43:57;13.98;;;10.48;;
39020;SDS011;25188;51.958;5.842;2022-08-19T11:46:23;12.45;;;9.40;;
39020;SDS011;25188;51.958;5.842;2022-08-19T11:48:50;11.50;;;9.05;;
39020;SDS011;25188;51.958;5.842;2022-08-19T11:51:18;12.50;;;9.43;;
39020;SDS011;25188;51.958;5.842;2022-08-19T11:53:47;14.43;;;10.93;;
39020;SDS011;25188;51.958;5.842;2022-08-19T11:56:14;9.88;;;8.13;;
39020;SDS011;25188;51.958;5.842;2022-08-19T11:58:40;12.52;;;9.82;;
39020;SDS011;25188;51.958;5.842;2022-08-19T12:01:09;11.60;;;9.90;;
39020;SDS011;25188;51.958;5.842;2022-08-19T12:03:41;14.73;;;9.57;;
39020;SDS011;25188;51.958;5.842;2022-08-19T12:06:09;12.43;;;9.60;;
39020;SDS011;25188;51.958;5.842;2022-08-19T12:08:39;10.95;;;8.35;;
39020;SDS011;25188;51.958;5.842;2022-08-19T12:11:06;11.38;;;9.43;;
39020;SDS011;25188;51.958;5.842;2022-08-19T12:13:35;16.70;;;10.68;;
39020;SDS011;25188;51.958;5.842;2022-08-19T12:16:06;11.63;;;9.38;;
39020;SDS011;25188;51.958;5.842;2022-08-19T12:18:35;12.52;;;9.75;;
39020;SDS011;25188;51.958;5.842;2022-08-19T12:21:01;14.38;;;9.88;;
39020;SDS011;25188;51.958;5.842;2022-08-19T12:23:27;10.80;;;8.30;;
39020;SDS011;25188;51.958;5.842;2022-08-19T12:25:52;12.27;;;10.23;;
39020;SDS011;25188;51.958;5.842;2022-08-19T12:28:19;12.02;;;9.60;;
39020;SDS011;25188;51.958;5.842;2022-08-19T12:30:47;11.35;;;9.85;;
39020;SDS011;25188;51.958;5.842;2022-08-19T12:33:15;14.00;;;11.00;;
39020;SDS011;25188;51.958;5.842;2022-08-19T12:35:43;12.38;;;10.77;;
39020;SDS011;25188;51.958;5.842;2022-08-19T12:38:10;11.93;;;10.43;;
39020;SDS011;25188;51.958;5.842;2022-08-19T12:40:36;13.93;;;10.23;;
39020;SDS011;25188;51.958;5.842;2022-08-19T12:43:02;12.95;;;10.48;;
39020;SDS011;25188;51.958;5.842;2022-08-19T12:45:29;12.63;;;10.43;;
39020;SDS011;25188;51.958;5.842;2022-08-19T12:47:54;12.75;;;9.23;;
39020;SDS011;25188;51.958;5.842;2022-08-19T12:50:20;14.43;;;10.35;;
39020;SDS011;25188;51.958;5.842;2022-08-19T12:52:46;13.60;;;10.98;;
39020;SDS011;25188;51.958;5.842;2022-08-19T12:55:13;18.30;;;9.70;;
39020;SDS011;25188;51.958;5.842;2022-08-19T12:57:39;12.82;;;9.98;;
39020;SDS011;25188;51.958;5.842;2022-08-19T13:00:12;16.27;;;12.38;;
39020;SDS011;25188;51.958;5.842;2022-08-19T13:02:41;12.05;;;10.80;;
39020;SDS011;25188;51.958;5.842;2022-08-19T13:05:11;12.18;;;9.73;;
39020;SDS011;25188;51.958;5.842;2022-08-19T13:07:41;11.07;;;9.70;;
39020;SDS011;25188;51.958;5.842;2022-08-19T13:10:09;13.27;;;9.43;;
39020;SDS011;25188;51.958;5.842;2022-08-19T13:12:37;12.80;;;10.52;;
39020;SDS011;25188;51.958;5.842;2022-08-19T13:15:04;12.52;;;9.02;;
39020;SDS011;25188;51.958;5.842;2022-08-19T13:17:30;11.20;;;9.52;;
39020;SDS011;25188;51.958;5.842;2022-08-19T13:19:57;8.57;;;7.10;;
39020;SDS011;25188;51.958;5.842;2022-08-19T13:22:23;10.25;;;7.68;;
39020;SDS011;25188;51.958;5.842;2022-08-19T13:24:49;10.77;;;8.23;;
39020;SDS011;25188;51.958;5.842;2022-08-19T13:27:15;11.55;;;8.43;;
39020;SDS011;25188;51.958;5.842;2022-08-19T13:29:41;14.52;;;9.02;;
39020;SDS011;25188;51.958;5.842;2022-08-19T13:32:25;12.77;;;9.80;;
39020;SDS011;25188;51.958;5.842;2022-08-19T13:35:10;11.43;;;8.57;;
39020;SDS011;25188;51.958;5.842;2022-08-19T13:37:35;11.00;;;8.82;;
39020;SDS011;25188;51.958;5.842;2022-08-19T13:40:09;9.75;;;7.88;;
39020;SDS011;25188;51.958;5.842;2022-08-19T13:45:07;12.48;;;8.50;;
39020;SDS011;25188;51.958;5.842;2022-08-19T13:47:34;9.23;;;7.65;;
39020;SDS011;25188;51.958;5.842;2022-08-19T13:50:03;12.20;;;7.97;;
39020;SDS011;25188;51.958;5.842;2022-08-19T13:52:29;9.43;;;8.30;;
39020;SDS011;25188;51.958;5.842;2022-08-19T13:54:55;12.32;;;8.13;;
39020;SDS011;25188;51.958;5.842;2022-08-19T13:57:21;11.18;;;8.55;;
39020;SDS011;25188;51.958;5.842;2022-08-19T13:59:47;12.05;;;8.73;;
39020;SDS011;25188;51.958;5.842;2022-08-19T14:02:13;11.15;;;8.45;;
39020;SDS011;25188;51.958;5.842;2022-08-19T14:04:38;12.75;;;10.13;;
39020;SDS011;25188;51.958;5.842;2022-08-19T14:07:04;12.45;;;9.38;;
39020;SDS011;25188;51.958;5.842;2022-08-19T14:09:30;13.20;;;9.43;;
39020;SDS011;25188;51.958;5.842;2022-08-19T14:11:56;12.02;;;9.43;;
39020;SDS011;25188;51.958;5.842;2022-08-19T14:14:22;11.27;;;9.35;;
39020;SDS011;25188;51.958;5.842;2022-08-19T14:16:48;11.50;;;9.57;;
39020;SDS011;25188;51.958;5.842;2022-08-19T14:19:14;13.27;;;9.93;;
39020;SDS011;25188;51.958;5.842;2022-08-19T14:21:40;16.15;;;10.25;;
39020;SDS011;25188;51.958;5.842;2022-08-19T14:24:06;13.05;;;9.38;;
39020;SDS011;25188;51.958;5.842;2022-08-19T14:26:32;12.32;;;9.80;;
39020;SDS011;25188;51.958;5.842;2022-08-19T14:28:58;18.85;;;9.57;;
39020;SDS011;25188;51.958;5.842;2022-08-19T14:31:24;12.73;;;9.77;;
39020;SDS011;25188;51.958;5.842;2022-08-19T14:33:50;12.93;;;9.82;;
39020;SDS011;25188;51.958;5.842;2022-08-19T14:36:16;13.20;;;10.27;;
39020;SDS011;25188;51.958;5.842;2022-08-19T14:38:42;13.35;;;9.15;;
39020;SDS011;25188;51.958;5.842;2022-08-19T14:41:09;10.65;;;7.82;;
39020;SDS011;25188;51.958;5.842;2022-08-19T14:43:41;10.80;;;7.68;;
39020;SDS011;25188;51.958;5.842;2022-08-19T14:46:12;11.77;;;6.82;;
39020;SDS011;25188;51.958;5.842;2022-08-19T14:48:39;10.90;;;6.78;;
39020;SDS011;25188;51.958;5.842;2022-08-19T14:51:05;9.55;;;5.30;;
39020;SDS011;25188;51.958;5.842;2022-08-19T14:53:31;7.03;;;3.65;;
39020;SDS011;25188;51.958;5.842;2022-08-19T14:55:58;5.90;;;3.70;;
39020;SDS011;25188;51.958;5.842;2022-08-19T14:58:25;6.50;;;2.35;;